Sainte Genevieve, Missouri
Current Conditions -  °F | °C
As of 10:15 AM on Tuesday 21 Oct 2014 (Local Time) from KSAR Reporting Station
Clear Clear  
Wind Chill: 58°   Ceiling: Unl
Heat Index: 58°   Visibility: 10mi
Dew Point: 47°   Wind: 7mph
Humidity: 68%   Direction: 350°N
Pressure: 30.12"   Gusts: NA
Location:  37.98°N, 90.04°W
Report Text: KSAR 211515Z AUTO 35006KT 10SM CLR 14/08 A3012 RMK AO2 T01420083
Loading
Personal Weather Stations






























Interactive Weather Map
Tropical Storm Tracking
New forecast layout! Learn more

10-Day Weather Forecast

Advertisements
Track Severe Weather on mobile